Time;durP1;ratioP1;P1;durP2;ratioP2;P2;SDS_P1;SDS_P2;PMS_P1;PMS_P2;Temp;Humidity;BMP_temperature;BMP_pressure;BME280_temperature;BME280_humidity;BME280_pressure;Samples;Min_cycle;Max_cycle;Signal;HPM_P1;HPM_P2
2023/05/06 00:01:45;;;;;;;1.23;1.23;;;16.00;99.90;;;16.35;92.12;100696.31;5028035;28;20670;-67
2023/05/06 00:04:14;;;;;;;1.60;1.50;;;16.00;99.90;;;16.33;92.93;100699.09;5032457;28;20723;-68
2023/05/06 00:06:41;;;;;;;3.87;2.93;;;16.00;99.90;;;16.34;92.20;100692.84;5033120;28;20646;-68
2023/05/06 00:09:09;;;;;;;4.67;3.40;;;16.00;99.90;;;16.35;92.26;100696.31;5026850;28;21222;-67
2023/05/06 00:11:36;;;;;;;1.47;1.40;;;16.00;99.90;;;16.33;91.59;100693.84;5031025;28;20666;-68
2023/05/06 00:14:02;;;;;;;1.40;1.30;;;16.00;99.90;;;16.34;90.55;100690.22;5033424;28;20619;-67
2023/05/06 00:16:29;;;;;;;1.90;1.40;;;16.00;99.90;;;16.32;91.26;100686.91;5045505;28;20628;-68
2023/05/06 00:18:56;;;;;;;1.33;1.30;;;16.00;99.90;;;16.30;90.74;100688.84;5043942;28;21239;-67
2023/05/06 00:21:23;;;;;;;2.00;1.63;;;16.00;99.90;;;16.29;90.14;100687.22;5031305;28;20663;-68
2023/05/06 00:23:50;;;;;;;1.77;1.67;;;16.00;99.90;;;16.29;90.77;100681.94;5034042;28;21061;-68
2023/05/06 00:26:18;;;;;;;1.60;1.50;;;16.00;99.90;;;16.27;90.34;100676.81;5032406;28;20647;-68
2023/05/06 00:28:44;;;;;;;1.47;1.37;;;15.90;99.90;;;16.28;90.68;100673.22;5033556;28;20670;-68
2023/05/06 00:31:11;;;;;;;1.80;1.70;;;15.90;99.90;;;16.29;89.97;100674.84;5025424;28;20652;-67
2023/05/06 00:33:38;;;;;;;1.90;1.73;;;15.90;99.90;;;16.28;90.06;100672.38;5031582;28;20616;-68
2023/05/06 00:36:05;;;;;;;1.50;1.40;;;15.90;99.90;;;16.28;90.01;100672.38;5032959;28;20640;-68
2023/05/06 00:38:32;;;;;;;1.50;1.40;;;15.90;99.90;;;16.30;89.46;100675.69;5045819;28;20627;-68
2023/05/06 00:40:59;;;;;;;1.60;1.50;;;16.00;99.90;;;16.30;89.79;100668.63;5043513;28;20679;-67
2023/05/06 00:43:26;;;;;;;1.40;1.40;;;16.00;99.90;;;16.31;89.24;100672.91;5032994;28;21007;-67
2023/05/06 00:45:53;;;;;;;1.20;1.20;;;16.00;99.90;;;16.30;88.53;100676.53;5045488;28;20665;-68
2023/05/06 00:48:21;;;;;;;1.43;1.33;;;16.00;99.90;;;16.29;88.07;100668.78;5046655;28;21483;-68
2023/05/06 00:50:48;;;;;;;1.20;1.20;;;16.00;99.90;;;16.27;87.08;100668.06;5014952;28;21244;-67
2023/05/06 00:53:22;;;;;;;1.30;1.30;;;16.00;99.90;;;16.25;86.99;100668.22;5026824;28;20636;-68
2023/05/06 00:55:50;;;;;;;0.90;0.90;;;16.00;99.90;;;16.21;86.96;100661.59;5037539;28;21233;-68
2023/05/06 00:58:19;;;;;;;1.10;1.00;;;15.90;99.90;;;16.19;86.67;100666.19;5027780;28;20667;-68
2023/05/06 01:00:46;;;;;;;1.43;1.07;;;15.90;99.90;;;16.15;86.76;100677.13;5027368;28;20672;-68
2023/05/06 01:03:13;;;;;;;1.27;1.07;;;15.80;99.90;;;16.09;86.91;100672.47;5020898;28;20698;-68
2023/05/06 01:06:23;;;;;;;1.23;1.23;;;15.80;99.90;;;16.01;88.16;100675.00;5023602;28;20714;-68
2023/05/06 01:09:38;;;;;;;1.07;1.07;;;15.70;99.90;;;15.94;88.18;100671.25;5025502;28;21078;-67
2023/05/06 01:12:34;;;;;;;1.00;1.00;;;15.60;99.90;;;15.89;88.48;100668.22;5024251;28;20640;-67
2023/05/06 01:15:12;;;;;;;2.10;1.53;;;15.60;99.90;;;15.87;89.26;100673.63;5025508;28;20628;-67
2023/05/06 01:17:49;;;;;;;1.20;1.20;;;15.60;99.90;;;15.86;88.92;100679.88;5026374;28;20628;-68
2023/05/06 01:20:20;;;;;;;1.13;1.03;;;15.50;99.90;;;15.84;88.90;100673.09;5024460;28;20652;-67
2023/05/06 01:22:49;;;;;;;1.30;1.20;;;15.50;99.90;;;15.83;89.29;100676.69;5025758;28;20726;-68
2023/05/06 01:25:21;;;;;;;1.50;1.50;;;15.50;99.90;;;15.80;89.80;100677.78;5025748;28;20668;-68
2023/05/06 01:27:49;;;;;;;1.50;1.40;;;15.50;99.90;;;15.78;90.13;100674.47;5024450;28;20756;-67
2023/05/06 01:30:18;;;;;;;0.90;0.90;;;15.40;99.90;;;15.76;89.87;100670.38;5026891;28;20649;-68
2023/05/06 01:32:49;;;;;;;1.60;1.40;;;15.40;99.90;;;15.73;90.12;100674.09;5020084;28;20663;-67
2023/05/06 01:35:52;;;;;;;1.60;1.50;;;15.40;99.90;;;15.74;90.27;100677.56;5025222;28;21170;-67
2023/05/06 01:38:45;;;;;;;1.70;1.23;;;15.40;99.90;;;15.72;90.02;100672.44;5026726;28;20639;-67
2023/05/06 01:41:15;;;;;;;1.03;1.03;;;15.40;99.90;;;15.69;89.61;100672.72;5032217;28;21006;-68
2023/05/06 01:43:46;;;;;;;1.13;1.13;;;15.40;99.90;;;15.61;89.14;100672.56;5036406;28;20636;-67
2023/05/06 01:46:20;;;;;;;1.00;1.00;;;15.30;99.90;;;15.54;89.41;100669.69;5022812;28;20660;-68
2023/05/06 01:48:52;;;;;;;1.00;1.00;;;15.20;99.90;;;15.49;90.02;100676.34;5030828;28;20644;-68
2023/05/06 01:51:23;;;;;;;0.90;0.90;;;15.20;99.90;;;15.46;90.33;100690.59;5030410;28;20656;-67
2023/05/06 01:53:50;;;;;;;1.73;1.63;;;15.10;99.90;;;15.42;90.63;100686.56;5030083;28;20687;-68
2023/05/06 01:56:17;;;;;;;1.10;1.10;;;15.10;99.90;;;15.40;90.80;100691.13;5032270;28;20643;-68
2023/05/06 01:58:44;;;;;;;1.57;1.40;;;15.10;99.90;;;15.36;90.70;100696.81;5025253;28;20648;-67
2023/05/06 02:01:10;;;;;;;2.23;0.97;;;15.10;99.90;;;15.30;91.23;100692.94;5034003;28;20661;-68
2023/05/06 02:03:37;;;;;;;1.30;1.30;;;15.00;99.90;;;15.28;91.18;100702.75;5036218;28;20632;-68
2023/05/06 02:06:04;;;;;;;3.23;1.60;;;15.00;99.90;;;15.25;91.45;100694.31;5034032;28;20660;-67
2023/05/06 02:08:31;;;;;;;1.47;1.47;;;15.00;99.90;;;15.26;92.18;100694.19;5031123;28;20611;-68
2023/05/06 02:10:58;;;;;;;1.37;1.37;;;15.00;99.90;;;15.26;92.02;100701.25;5030030;28;21231;-68
2023/05/06 02:13:25;;;;;;;1.30;1.20;;;15.00;99.90;;;15.27;91.69;100690.56;5029070;28;20659;-67
2023/05/06 02:15:53;;;;;;;1.40;1.30;;;15.00;99.90;;;15.25;92.40;100689.88;5030289;28;20686;-67
2023/05/06 02:18:20;;;;;;;1.40;1.30;;;15.00;99.90;;;15.26;92.41;100698.59;5041388;28;20677;-68
2023/05/06 02:20:47;;;;;;;1.43;1.43;;;14.90;99.90;;;15.25;92.18;100696.94;5044623;28;20647;-68
2023/05/06 02:23:14;;;;;;;1.13;1.13;;;15.00;99.90;;;15.22;92.46;100698.06;5030671;28;20644;-68
2023/05/06 02:25:41;;;;;;;1.47;1.30;;;14.90;99.90;;;15.21;91.75;100700.81;5030090;28;20653;-68
2023/05/06 02:28:08;;;;;;;1.20;1.20;;;15.00;99.90;;;15.13;91.55;100687.53;5030414;28;20612;-67
2023/05/06 02:30:35;;;;;;;1.63;1.53;;;14.90;99.90;;;15.04;92.21;100689.19;5038093;28;21290;-68
2023/05/06 02:33:02;;;;;;;1.43;1.33;;;14.70;99.90;;;15.00;92.76;100685.19;5027483;28;20640;-68
2023/05/06 02:35:29;;;;;;;1.27;1.27;;;14.70;99.90;;;14.98;92.68;100688.91;5019429;28;20633;-67
2023/05/06 02:37:56;;;;;;;2.87;1.50;;;14.70;99.90;;;14.94;92.98;100688.38;5031646;28;20625;-68
2023/05/06 02:40:23;;;;;;;1.13;1.13;;;14.70;99.90;;;14.89;92.83;100690.56;5031189;28;21116;-67
2023/05/06 02:42:50;;;;;;;1.60;1.50;;;14.60;99.90;;;14.85;93.01;100690.97;5031238;28;21259;-68
2023/05/06 02:45:17;;;;;;;1.27;1.27;;;14.60;99.90;;;14.84;93.52;100684.91;5029986;28;20669;-68
2023/05/06 02:47:44;;;;;;;1.40;1.40;;;14.50;99.90;;;14.85;93.72;100673.41;5031053;28;20613;-68
2023/05/06 02:50:11;;;;;;;1.40;1.30;;;14.60;99.90;;;14.83;93.49;100677.97;5032362;28;21565;-68
2023/05/06 02:52:37;;;;;;;1.43;1.40;;;14.50;99.90;;;14.77;93.42;100675.91;5037675;28;20683;-68
2023/05/06 02:55:05;;;;;;;1.47;1.37;;;14.50;99.90;;;14.75;93.00;100673.41;5031898;28;20629;-68
2023/05/06 02:57:32;;;;;;;1.20;1.20;;;14.50;99.90;;;14.75;93.47;100680.44;5048321;28;20631;-67
2023/05/06 02:59:59;;;;;;;1.93;1.80;;;14.50;99.90;;;14.76;93.04;100677.69;5034166;28;21061;-68
2023/05/06 03:02:26;;;;;;;2.10;1.80;;;14.50;99.90;;;14.77;93.25;100673.25;5064369;22;20687;-66
2023/05/06 03:04:53;;;;;;;1.93;1.73;;;14.50;99.90;;;14.78;93.28;100677.53;5021548;28;20660;-66
2023/05/06 03:07:20;;;;;;;1.80;1.70;;;14.50;99.90;;;14.73;93.21;100677.13;5038476;28;20628;-66
2023/05/06 03:09:47;;;;;;;0.83;0.83;;;14.50;99.90;;;14.70;92.19;100674.75;5044205;28;20624;-66
2023/05/06 03:12:14;;;;;;;1.50;1.40;;;14.50;99.90;;;14.63;92.43;100673.63;5047456;28;20638;-66
2023/05/06 03:14:41;;;;;;;1.93;1.83;;;14.40;99.90;;;14.59;93.21;100678.34;5049604;28;20639;-66
2023/05/06 03:17:08;;;;;;;1.77;1.67;;;14.30;99.90;;;14.54;93.35;100677.09;5038532;28;21588;-68
2023/05/06 03:19:35;;;;;;;2.00;1.90;;;14.30;99.90;;;14.50;93.69;100679.13;5033982;28;20624;-66
2023/05/06 03:22:02;;;;;;;1.67;1.57;;;14.20;99.90;;;14.46;93.34;100675.13;5034552;28;20751;-67
2023/05/06 03:24:29;;;;;;;1.50;1.40;;;14.20;99.90;;;14.44;93.54;100679.69;5034172;28;20619;-67
2023/05/06 03:26:57;;;;;;;1.60;1.50;;;14.20;99.90;;;14.46;93.33;100676.94;5032694;28;20668;-66
2023/05/06 03:29:25;;;;;;;1.50;1.50;;;14.20;99.90;;;14.49;94.15;100676.66;5028867;28;20623;-68
2023/05/06 03:31:54;;;;;;;1.47;1.37;;;14.20;99.90;;;14.51;94.45;100678.19;5024544;28;20657;-67
2023/05/06 03:34:22;;;;;;;1.23;1.23;;;14.20;99.90;;;14.50;93.77;100684.38;5033462;28;20667;-66
2023/05/06 03:36:49;;;;;;;1.23;1.23;;;14.20;99.90;;;14.47;93.30;100683.84;5026500;28;20698;-66
2023/05/06 03:39:16;;;;;;;1.40;1.30;;;14.20;99.90;;;14.42;92.97;100691.25;5034576;28;20615;-66
2023/05/06 03:41:43;;;;;;;1.40;1.30;;;14.10;99.90;;;14.35;92.99;100688.34;5032185;28;20732;-67
2023/05/06 03:44:10;;;;;;;1.67;1.57;;;14.10;99.90;;;14.34;94.35;100688.47;5033162;28;20635;-66
2023/05/06 03:46:37;;;;;;;1.60;1.50;;;14.10;99.90;;;14.32;94.83;100688.63;5020686;28;20673;-68
2023/05/06 03:49:04;;;;;;;2.00;1.60;;;14.10;99.90;;;14.32;94.97;100687.78;5024240;28;20679;-66
2023/05/06 03:51:31;;;;;;;1.60;1.50;;;14.00;99.90;;;14.31;95.08;100683.50;5037342;28;20742;-67
2023/05/06 03:53:59;;;;;;;1.57;1.47;;;14.00;99.90;;;14.28;94.68;100688.97;5032599;28;20633;-67
2023/05/06 03:56:26;;;;;;;1.40;1.40;;;14.00;99.90;;;14.28;94.49;100686.34;5028525;28;20635;-67
2023/05/06 03:58:53;;;;;;;1.40;1.30;;;14.00;99.90;;;14.29;94.47;100688.88;5046759;28;20647;-66
2023/05/06 04:01:20;;;;;;;1.67;1.60;;;14.00;99.90;;;14.32;94.39;100685.16;5036386;28;20661;-67
2023/05/06 04:03:47;;;;;;;2.00;1.60;;;14.10;99.90;;;14.35;94.43;100692.78;5050327;28;20620;-67
2023/05/06 04:06:14;;;;;;;1.60;1.50;;;14.10;99.90;;;14.37;94.13;100693.47;5041665;28;20667;-66
2023/05/06 04:08:41;;;;;;;1.47;1.37;;;14.10;99.90;;;14.39;94.05;100696.81;5048979;28;20641;-68
2023/05/06 04:11:08;;;;;;;1.90;1.80;;;14.10;99.90;;;14.40;93.15;100694.03;5026956;28;20670;-66
2023/05/06 04:13:35;;;;;;;1.27;1.27;;;14.10;99.90;;;14.40;93.14;100686.16;5037837;28;20624;-66
2023/05/06 04:16:03;;;;;;;1.60;1.50;;;14.10;99.90;;;14.43;92.84;100698.19;5032472;28;20647;-66
2023/05/06 04:18:30;;;;;;;2.50;1.37;;;14.10;99.90;;;14.46;92.52;100693.50;5016138;28;21179;-66
2023/05/06 04:20:58;;;;;;;2.77;1.50;;;14.20;99.90;;;14.52;93.07;100703.47;5037270;28;20669;-66
2023/05/06 04:23:25;;;;;;;2.33;2.00;;;14.30;99.90;;;14.65;92.47;100700.63;5033862;28;20625;-68
2023/05/06 04:25:52;;;;;;;2.00;1.90;;;14.40;99.90;;;14.76;91.84;100705.72;5048431;28;20660;-64
2023/05/06 04:28:19;;;;;;;2.63;2.23;;;14.40;99.90;;;14.91;91.22;100709.63;5031978;28;20639;-67
2023/05/06 04:30:46;;;;;;;2.20;2.00;;;14.60;99.90;;;15.03;90.65;100716.44;5036114;28;20628;-67
2023/05/06 04:33:13;;;;;;;2.10;2.00;;;14.70;99.90;;;15.13;90.43;100704.16;5018371;28;20633;-66
2023/05/06 04:35:49;;;;;;;1.87;1.77;;;14.80;99.90;;;15.25;89.66;100708.28;5036986;28;21047;-65
2023/05/06 04:38:16;;;;;;;2.70;2.03;;;15.00;99.90;;;15.34;89.37;100711.88;5021460;28;20644;-66
2023/05/06 04:40:43;;;;;;;1.70;1.60;;;15.00;99.90;;;15.47;89.64;100712.47;5026687;28;20628;-67
2023/05/06 04:43:11;;;;;;;2.20;2.00;;;15.20;99.90;;;15.57;88.52;100710.66;5025728;28;20839;-66
2023/05/06 04:45:39;;;;;;;1.30;1.20;;;15.30;99.90;;;15.65;87.46;100720.50;5034932;28;21032;-68
2023/05/06 04:48:07;;;;;;;1.50;1.40;;;15.40;99.90;;;15.75;86.45;100716.88;5050329;28;21401;-66
2023/05/06 04:50:34;;;;;;;1.43;1.20;;;15.50;99.90;;;15.90;86.34;100718.09;5052815;28;20679;-66
2023/05/06 04:53:01;;;;;;;1.57;1.37;;;15.60;99.90;;;16.06;85.26;100720.94;5012511;28;20668;-66
2023/05/06 04:55:28;;;;;;;1.67;1.50;;;15.70;99.90;;;16.16;83.38;100726.19;5022052;28;21283;-68
2023/05/06 04:57:55;;;;;;;1.93;1.70;;;15.90;99.90;;;16.20;82.76;100731.03;5036817;28;20643;-67
2023/05/06 05:00:25;;;;;;;1.87;1.60;;;15.90;99.90;;;16.29;83.09;100729.34;5032079;28;21191;-66
2023/05/06 05:02:52;;;;;;;1.43;1.33;;;16.00;99.90;;;16.44;83.12;100729.69;5024359;28;20683;-65
2023/05/06 05:05:19;;;;;;;1.40;1.30;;;16.20;99.90;;;16.63;82.48;100732.28;5037168;28;20635;-65
2023/05/06 05:07:46;;;;;;;1.77;1.67;;;16.30;99.90;;;16.85;82.31;100726.56;5025251;28;20644;-69
2023/05/06 05:10:13;;;;;;;1.70;1.60;;;16.50;99.90;;;17.10;82.06;100727.69;5028184;28;20753;-66
2023/05/06 05:12:40;;;;;;;1.43;1.43;;;16.80;99.90;;;17.39;80.90;100731.75;5051223;28;20647;-66
2023/05/06 05:15:08;;;;;;;1.90;1.80;;;17.00;99.90;;;17.62;78.86;100743.53;5036102;28;20640;-66
2023/05/06 05:17:35;;;;;;;2.20;2.10;;;17.30;99.90;;;17.82;79.34;100736.25;5019457;28;20632;-66
2023/05/06 05:20:03;;;;;;;2.80;2.60;;;17.50;99.90;;;18.02;78.25;100737.69;5022439;28;20739;-66
2023/05/06 05:22:31;;;;;;;2.10;1.70;;;17.70;99.90;;;18.26;78.00;100743.13;5022998;28;20710;-67
2023/05/06 05:24:57;;;;;;;2.93;2.73;;;17.90;99.90;;;18.56;76.86;100740.03;5027321;28;21056;-66
2023/05/06 05:27:24;;;;;;;1.63;1.53;;;18.20;99.90;;;18.92;76.19;100745.94;5022461;28;20746;-68
2023/05/06 05:29:51;;;;;;;2.80;2.60;;;18.60;99.90;;;19.31;74.70;100756.75;5026932;28;20624;-67
2023/05/06 05:32:18;;;;;;;2.83;2.63;;;18.90;99.90;;;19.69;72.43;100756.16;5026516;28;21309;-66
2023/05/06 05:34:46;;;;;;;3.13;2.83;;;19.30;99.90;;;20.01;70.79;100753.47;5034820;28;20635;-67
2023/05/06 05:37:13;;;;;;;2.93;2.73;;;19.70;99.90;;;20.34;69.58;100761.38;5027750;28;20651;-65
2023/05/06 05:39:39;;;;;;;2.50;2.40;;;20.00;99.90;;;20.59;68.08;100757.66;5020609;28;20636;-66
2023/05/06 05:42:06;;;;;;;3.23;2.97;;;20.10;99.90;;;20.75;67.51;100757.59;5029468;28;20672;-66
2023/05/06 05:44:33;;;;;;;5.30;3.57;;;20.40;99.90;;;20.99;66.73;100756.63;5030763;28;20628;-69
2023/05/06 05:47:01;;;;;;;3.07;2.83;;;20.60;99.90;;;21.17;65.78;100758.06;5030312;28;21266;-66
2023/05/06 05:49:28;;;;;;;3.80;3.30;;;20.80;99.90;;;21.31;65.24;100767.94;5051131;28;20626;-66
2023/05/06 05:51:56;;;;;;;2.00;1.90;;;21.00;99.90;;;21.58;64.14;100762.09;5036328;28;20671;-67
2023/05/06 05:54:22;;;;;;;1.67;1.63;;;21.30;99.90;;;21.94;62.70;100761.47;5035974;28;20612;-67
2023/05/06 05:56:49;;;;;;;2.17;2.07;;;21.60;99.90;;;22.25;60.57;100754.19;5034022;28;21215;-67
2023/05/06 05:59:16;;;;;;;2.57;2.37;;;21.90;99.90;;;22.55;60.70;100766.47;5014452;28;20641;-66
2023/05/06 06:01:43;;;;;;;3.17;2.87;;;22.10;99.90;;;22.92;58.92;100758.38;5030511;28;20672;-66
2023/05/06 06:04:10;;;;;;;2.30;2.10;;;22.50;99.90;;;23.00;58.58;100750.28;5031498;28;20627;-66
2023/05/06 06:06:37;;;;;;;1.97;1.80;;;22.70;99.90;;;23.24;58.11;100753.59;5030873;28;20671;-66
2023/05/06 06:09:04;;;;;;;2.90;2.63;;;22.90;99.90;;;23.62;56.90;100755.84;5018667;28;20640;-66
2023/05/06 06:11:31;;;;;;;2.97;2.77;;;23.20;99.90;;;24.12;55.74;100741.53;5012605;28;20683;-67
2023/05/06 06:13:58;;;;;;;1.90;1.80;;;23.70;99.90;;;24.71;54.59;100746.34;5021930;28;21191;-67
2023/05/06 06:16:25;;;;;;;2.37;2.20;;;24.20;99.90;;;25.12;52.58;100755.16;5017099;28;20637;-68
2023/05/06 06:18:52;;;;;;;2.07;1.93;;;24.70;99.90;;;25.36;51.61;100747.38;5035116;28;20631;-68
2023/05/06 06:21:19;;;;;;;2.13;2.03;;;25.00;99.90;;;25.48;51.13;100746.81;5028612;28;20654;-65
2023/05/06 06:23:46;;;;;;;2.40;2.30;;;25.20;99.90;;;25.63;50.75;100750.13;5037854;28;20695;-65
2023/05/06 06:26:13;;;;;;;4.30;2.40;;;25.30;99.90;;;25.53;49.67;100753.22;5030280;28;20661;-66
2023/05/06 06:28:40;;;;;;;2.03;1.93;;;25.30;98.50;;;25.95;49.61;100763.50;5023301;28;21047;-69
2023/05/06 06:31:07;;;;;;;2.43;2.23;;;25.50;98.90;;;26.37;48.35;100767.56;5018653;28;20648;-68
2023/05/06 06:33:34;;;;;;;2.33;2.10;;;26.00;98.20;;;26.68;48.42;100774.91;5029052;28;20627;-68
2023/05/06 06:36:01;;;;;;;2.57;2.37;;;26.30;97.30;;;27.04;47.55;100777.03;5027568;28;21074;-66
2023/05/06 06:38:28;;;;;;;4.00;2.40;;;26.70;96.50;;;27.39;45.82;100783.66;5032675;28;20640;-66
2023/05/06 06:40:55;;;;;;;2.50;2.37;;;27.10;95.00;;;27.63;45.25;100783.69;5037672;28;20660;-66
2023/05/06 06:43:23;;;;;;;2.40;2.30;;;27.30;93.80;;;27.42;45.72;100777.88;5028070;28;20633;-66
2023/05/06 06:45:50;;;;;;;3.20;2.90;;;27.10;93.40;;;27.36;46.48;100779.56;5049029;28;20627;-66
2023/05/06 06:48:18;;;;;;;2.03;1.93;;;27.10;93.80;;;27.53;45.40;100783.38;5041485;28;21253;-66
2023/05/06 06:50:45;;;;;;;2.90;2.70;;;27.20;92.90;;;27.49;45.43;100781.34;5018368;28;20623;-67
2023/05/06 06:53:12;;;;;;;2.63;2.43;;;27.20;92.30;;;27.22;45.83;100774.44;5031422;28;20639;-66
2023/05/06 06:55:43;;;;;;;2.60;2.40;;;27.10;92.40;;;27.59;45.50;100774.47;5033342;28;20619;-69
2023/05/06 06:58:11;;;;;;;2.20;2.00;;;27.20;92.40;;;27.66;44.55;100780.56;5021354;28;20991;-66
2023/05/06 07:00:38;;;;;;;1.87;1.77;;;27.20;91.50;;;28.04;43.72;100774.31;5030002;28;20624;-67
2023/05/06 07:03:04;;;;;;;2.20;2.10;;;27.60;90.60;;;28.67;42.30;100781.09;5028759;28;20672;-65
2023/05/06 07:05:31;;;;;;;2.27;2.07;;;28.10;89.40;;;29.15;40.80;100784.63;5046215;28;20647;-67
2023/05/06 07:07:58;;;;;;;2.00;1.90;;;28.70;87.30;;;29.73;40.02;100784.00;5032534;28;20652;-67
2023/05/06 07:10:25;;;;;;;2.33;2.20;;;29.30;85.40;;;30.31;38.33;100781.38;5023739;28;21209;-67
2023/05/06 07:12:53;;;;;;;2.03;1.93;;;29.80;81.60;;;31.01;37.17;100785.59;5012329;28;20628;-67
2023/05/06 07:15:20;;;;;;;2.23;2.13;;;30.60;78.80;;;31.62;36.21;100784.84;5030453;28;20672;-67
2023/05/06 07:17:47;;;;;;;1.90;1.80;;;31.20;76.20;;;31.79;35.32;100793.78;5031489;28;20717;-67
2023/05/06 07:20:15;;;;;;;2.97;2.40;;;31.60;73.70;;;31.39;35.61;100785.75;5029822;28;20616;-67
2023/05/06 07:22:42;;;;;;;1.70;1.60;;;31.20;72.50;;;31.02;36.29;100781.03;5028858;28;21313;-67
2023/05/06 07:25:09;;;;;;;1.90;1.80;;;30.70;73.20;;;30.40;37.54;100778.09;5030989;28;20635;-67
2023/05/06 07:27:37;;;;;;;1.70;1.67;;;30.30;73.90;;;30.45;37.97;100778.19;5020847;28;20660;-68
2023/05/06 07:30:04;;;;;;;1.90;1.80;;;30.20;74.10;;;30.96;36.87;100785.50;5008480;28;20751;-69
2023/05/06 07:32:31;;;;;;;1.80;1.70;;;30.60;73.40;;;31.05;36.27;100783.25;5021958;28;21041;-69
2023/05/06 07:34:58;;;;;;;2.17;2.07;;;30.90;71.60;;;31.52;35.79;100787.34;5022646;28;20641;-66
2023/05/06 07:37:25;;;;;;;1.57;1.47;;;31.30;70.80;;;31.79;35.43;100779.47;5012112;28;20641;-67
2023/05/06 07:39:52;;;;;;;2.00;1.80;;;31.70;70.10;;;31.89;35.57;100785.00;5009671;28;20628;-67
2023/05/06 07:42:19;;;;;;;1.83;1.73;;;31.80;70.10;;;31.83;35.15;100778.72;5009738;28;20660;-67
2023/05/06 07:44:46;;;;;;;2.20;2.10;;;31.80;69.20;;;31.50;35.65;100786.00;5015406;28;21215;-67
2023/05/06 07:47:30;;;;;;;1.93;1.83;;;31.50;68.60;;;30.48;37.26;100783.13;5036933;28;20662;-67
2023/05/06 07:49:59;;;;;;;1.93;1.57;;;30.70;69.40;;;30.37;37.08;100770.50;5018764;28;20632;-66
2023/05/06 07:52:26;;;;;;;1.90;1.80;;;30.30;69.90;;;30.47;37.39;100783.38;5040183;28;20674;-66
2023/05/06 07:54:53;;;;;;;2.17;2.07;;;30.30;70.00;;;30.67;36.93;100773.84;5030309;28;20621;-67
2023/05/06 07:57:20;;;;;;;2.10;2.00;;;30.50;69.90;;;30.83;36.67;100779.53;5033724;28;21164;-66
2023/05/06 07:59:49;;;;;;;2.60;2.40;;;30.70;69.60;;;30.92;37.15;100775.44;5002569;28;21218;-67
2023/05/06 08:02:17;;;;;;;1.90;1.80;;;30.90;69.70;;;30.94;36.96;100786.78;5040175;28;20666;-67
2023/05/06 08:04:45;;;;;;;1.00;1.00;;;31.00;69.20;;;30.49;36.73;100784.78;5031632;28;20619;-67
2023/05/06 08:07:12;;;;;;;1.70;1.63;;;30.70;68.30;;;29.98;37.64;100784.66;5029548;28;20725;-65
2023/05/06 08:09:39;;;;;;;1.67;1.57;;;30.20;69.00;;;29.93;37.91;100789.91;5029597;28;20724;-69
2023/05/06 08:12:06;;;;;;;4.30;1.50;;;29.90;69.50;;;29.95;37.75;100782.41;5032184;28;20651;-67
2023/05/06 08:14:33;;;;;;;1.30;1.30;;;30.00;69.10;;;30.34;37.11;100787.13;5030958;28;20643;-67
2023/05/06 08:17:00;;;;;;;1.50;1.40;;;30.20;69.00;;;30.81;36.46;100787.03;5033140;28;20642;-66
2023/05/06 08:19:27;;;;;;;1.83;1.70;;;30.70;68.50;;;30.76;36.37;100790.44;5016274;28;20612;-67
2023/05/06 08:21:54;;;;;;;1.80;1.70;;;30.80;67.80;;;31.18;36.19;100794.53;5032698;28;20810;-68
2023/05/06 08:24:21;;;;;;;1.63;1.53;;;31.00;68.00;;;31.75;35.31;100799.91;5051524;28;21023;-72
2023/05/06 08:26:48;;;;;;;1.60;1.50;;;31.50;67.10;;;32.72;33.98;100801.91;5020964;28;20653;-68
2023/05/06 08:29:15;;;;;;;1.63;1.57;;;32.30;66.00;;;34.01;32.70;100797.31;5026826;28;20623;-68
2023/05/06 08:31:42;;;;;;;1.40;1.40;;;33.60;64.80;;;34.79;31.01;100803.75;5032289;28;20648;-66
2023/05/06 08:34:09;;;;;;;1.47;1.47;;;34.60;62.40;;;34.43;30.88;100802.75;5039190;28;20653;-67
2023/05/06 08:36:36;;;;;;;1.80;1.70;;;34.60;61.20;;;34.48;31.12;100800.03;5028793;28;20635;-66
2023/05/06 08:39:03;;;;;;;1.80;1.70;;;34.50;61.20;;;33.99;31.86;100804.06;5031110;28;20625;-65
2023/05/06 08:41:32;;;;;;;1.80;1.70;;;34.10;60.90;;;34.32;30.94;100796.44;5026299;28;20657;-66
2023/05/06 08:44:00;;;;;;;2.27;2.17;;;34.30;60.70;;;34.94;30.58;100803.78;5045304;28;21045;-72
2023/05/06 08:46:29;;;;;;;1.60;1.50;;;35.00;59.80;;;35.56;29.40;100801.81;5038043;28;20715;-67
2023/05/06 08:48:58;;;;;;;2.63;1.97;;;35.70;58.70;;;36.47;28.19;100809.91;5036293;28;20636;-66
2023/05/06 08:51:30;;;;;;;1.57;1.57;;;36.50;57.30;;;36.78;27.81;100805.16;5008473;28;20656;-67
2023/05/06 08:54:01;;;;;;;1.70;1.60;;;36.80;56.50;;;36.11;28.77;100798.28;5034910;28;20744;-69
2023/05/06 08:56:32;;;;;;;1.90;1.80;;;36.30;56.20;;;35.80;28.38;100796.63;5047545;28;20770;-69
2023/05/06 08:59:00;;;;;;;1.23;1.23;;;36.10;55.60;;;35.14;29.58;100787.59;5047071;28;20635;-66
2023/05/06 09:01:27;;;;;;;1.77;1.37;;;35.30;56.30;;;34.68;29.46;100786.63;5056497;22;20652;-67
2023/05/06 09:03:56;;;;;;;2.90;2.70;;;34.80;56.70;;;34.57;29.72;100782.25;5068008;28;20642;-68
2023/05/06 09:06:24;;;;;;;5.33;4.00;;;34.70;56.30;;;34.95;28.56;100794.56;5051895;28;21221;-67
2023/05/06 09:08:50;;;;;;;1.80;1.70;;;34.80;55.90;;;35.15;28.86;100783.00;5069900;28;20702;-67
2023/05/06 09:11:28;;;;;;;1.13;1.13;;;35.00;56.00;;;35.56;28.36;100787.44;5069701;28;21025;-66
2023/05/06 09:14:16;;;;;;;1.03;1.03;;;35.40;55.50;;;34.85;29.17;100789.94;5062681;28;20931;-67
2023/05/06 09:16:46;;;;;;;1.00;1.00;;;34.90;55.80;;;35.30;28.87;100783.03;5053827;28;20994;-67
2023/05/06 09:19:15;;;;;;;1.17;1.17;;;35.20;55.50;;;36.18;27.46;100793.38;5060892;28;21228;-67
2023/05/06 09:21:45;;;;;;;1.30;1.20;;;36.00;54.70;;;36.41;26.91;100787.34;5052113;28;20628;-67
2023/05/06 09:24:16;;;;;;;1.30;1.20;;;36.60;53.40;;;36.83;26.56;100777.94;5070306;28;20660;-67
2023/05/06 09:26:45;;;;;;;1.10;1.10;;;36.90;53.20;;;37.75;26.54;100768.91;5070865;28;21062;-69
2023/05/06 09:29:13;;;;;;;1.03;1.03;;;37.70;52.80;;;37.91;25.06;100776.66;5042017;28;20635;-70
2023/05/06 09:31:45;;;;;;;1.00;1.00;;;38.20;51.30;;;37.41;25.46;100784.44;5051933;28;20653;-68
2023/05/06 09:34:14;;;;;;;1.03;1.03;;;37.60;51.00;;;37.31;25.21;100783.38;5054943;28;20745;-71
2023/05/06 09:36:41;;;;;;;0.93;0.93;;;37.60;50.70;;;37.31;25.02;100785.31;5059290;28;20635;-68
2023/05/06 09:39:08;;;;;;;0.97;0.97;;;37.40;50.30;;;37.42;24.33;100775.19;5063758;28;20626;-67
2023/05/06 09:41:36;;;;;;;0.93;0.93;;;37.50;50.20;;;37.04;24.98;100774.03;5056216;28;20734;-67
2023/05/06 09:44:04;;;;;;;0.80;0.80;;;37.40;49.90;;;36.61;26.22;100769.34;5061116;28;21056;-68
2023/05/06 09:46:31;;;;;;;0.90;0.90;;;36.90;50.90;;;36.66;25.92;100774.75;5064638;28;20630;-70
2023/05/06 09:48:59;;;;;;;0.70;0.70;;;36.80;50.60;;;37.15;25.36;100770.97;5063334;28;20603;-71
2023/05/06 09:51:29;;;;;;;0.93;0.80;;;37.20;50.20;;;37.02;24.75;100770.78;5063440;28;21051;-70
2023/05/06 09:53:58;;;;;;;0.83;0.83;;;37.20;49.50;;;36.65;25.97;100771.25;5051376;28;20857;-67
2023/05/06 09:56:25;;;;;;;7.07;1.00;;;36.90;49.90;;;35.71;26.53;100771.16;5044962;28;20714;-70
2023/05/06 09:58:54;;;;;;;1.07;1.07;;;36.00;50.40;;;35.24;27.17;100762.41;5064269;28;20645;-67
2023/05/06 10:01:22;;;;;;;0.90;0.90;;;35.30;51.40;;;35.59;26.91;100767.88;5052978;28;20626;-68
2023/05/06 10:04:07;;;;;;;1.20;1.10;;;35.40;51.50;;;35.38;26.43;100760.78;5063092;28;20627;-68
2023/05/06 10:06:38;;;;;;;0.90;0.90;;;35.20;51.10;;;35.29;27.44;100759.72;5061041;28;20658;-67
2023/05/06 10:09:08;;;;;;;1.00;1.00;;;35.00;51.90;;;35.31;27.62;100744.75;5064436;28;20618;-69
2023/05/06 10:11:35;;;;;;;1.00;1.00;;;34.80;52.30;;;35.06;27.85;100742.84;5051019;28;21265;-70
2023/05/06 10:14:04;;;;;;;0.83;0.83;;;34.50;53.40;;;34.26;29.53;100732.50;5053358;28;20678;-67
2023/05/06 10:16:34;;;;;;;0.90;0.90;;;33.70;54.20;;;33.23;30.83;100734.91;5032364;28;20658;-67
2023/05/06 10:19:03;;;;;;;0.93;0.93;;;32.80;55.00;;;31.89;32.65;100731.84;5070688;28;20626;-68